Airfield :
LOGIN :

Register | Disclaimer

   EN    FR    IT 

 










Legend :    VFR   Marginal VFR   IFR   Intensive IFR   Very Intensive IFR
Visi :
Ceiling :
>= 8 km
>= 3000ft
5 to 8 km
1000 to 3000 ft
1500m to 5 km
500 to 1000 ft
800 to 1500m
200 to 500 ft
< 800m
< 200 ft
Symbols :   Thunderstorms  Fog  Heavy snow  Heavy precipitations  Wind > 20 kt
SIGMETs :     Misc.  Thunderstorms  Icing  Turbulence  Mountain Waves  Volcanic Ashes







- Airport Elevation : 299 ft
- IATA code : EDM
- Download approach charts


LFRI - La Roche Sur Yon - Les Ajoncs

CURRENT METAR :
  • 171930Z AUTO 05009KT 9999 OVC016 09/07 Q1026 BECMG 4000 BR BKN009

EXPIRED METARs :
  • 171900Z AUTO 03008KT 9999 OVC016 09/07 Q1026 BECMG 4000 BR BKN009
  • 171830Z AUTO 05009KT 030V090 9999 OVC014 09/07 Q1026 BECMG 4000 BR BKN009
  • 171800Z AUTO 06008KT 020V090 9999 OVC014 09/07 Q1025 BECMG SCT020
  • 171730Z AUTO 06009KT 9999 OVC014 09/07 Q1025 BECMG SCT020
  • 171700Z AUTO 05011KT 9999 FEW014 09/06 Q1025 NOSIG
  • 171630Z AUTO 05010KT 9999 FEW018 09/06 Q1025 NOSIG

TAF AMD TAF LFRI
Valid from the 17 at 18:00 until the 18 at 18:00 UTC


171750Z 1718/1818 05010KT 9999 BKN014
BECMG 1719/1722 4000 BR BKN009
PROB40
TEMPO 1803/1808 0300 FG VV///
BECMG 1808/1810 9999 NSW SCT020
No reported NOTAMs for that airfield.



MET'MAP, your aeronautical weather chart ! - Copyright ORBIFLY December 2007 - Disclaimer

ORBIFLY MET'MAP TEAM :

Programming & Development : Alexandra Zaïnal
Concept & Development : Baudouin d'Aumeries
Co-Development & Prog : Marc-Olivier Méhu
Technical & hardware support : Manuel Goepfert

Contact : metmap@orbifly.com




SOURCES & CREDITS :

   NOAA